Terminal Aerodrome Forecast
Issued by NWS

Home | Current Version | Previous Version | Text Only | Print | Product List | Glossary On
Versions: 1 2 3 4 5 6 7 8 9 10 11 12 13 14 15 16 17 18 19 20 21 22 23 24 25 26 27 28 29 30 31 32 33 34 35 36 37
000
FTAK31 PAFA 291144 AAA
TAFAOM
TAF AMD
PAOM 291144Z 2912/3012 36007KT P6SM SCT060 BKN100
     FM291800 30009KT P6SM SCT040 OVC060
     FM292200 29015KT P6SM -SHRA SCT025 OVC050
     FM300600 30014KT P6SM VCSH SCT030 BKN060=

USA.gov is the U.S. government's official web portal to all federal, state and local government web resources and services.